createdAt,value
2022-08-17T00:00:49.697Z,9.85
2022-08-17T00:03:48.007Z,9.60
2022-08-17T00:06:49.112Z,9.93
2022-08-17T00:09:22.039Z,9.27
2022-08-17T00:12:41.776Z,9.20
2022-08-17T00:15:05.981Z,9.85
2022-08-17T00:17:43.582Z,10.50
2022-08-17T00:20:13.445Z,9.27
2022-08-17T00:22:44.107Z,9.27
2022-08-17T00:25:16.219Z,9.45
2022-08-17T00:27:43.981Z,10.00
2022-08-17T00:30:12.827Z,9.50
2022-08-17T00:33:15.479Z,9.18
2022-08-17T00:35:34.265Z,9.48
2022-08-17T00:38:34.612Z,9.90
2022-08-17T00:41:17.637Z,10.30
2022-08-17T00:43:57.390Z,10.38
2022-08-17T00:46:32.960Z,9.90
2022-08-17T00:49:07.237Z,10.10
2022-08-17T00:52:26.962Z,10.60
2022-08-17T00:54:55.251Z,9.82
2022-08-17T00:57:55.605Z,9.68
2022-08-17T01:00:32.439Z,9.55
2022-08-17T01:03:07.667Z,9.80
2022-08-17T01:05:38.833Z,9.93
2022-08-17T01:11:36.195Z,10.00
2022-08-17T01:14:29.218Z,9.18
2022-08-17T01:16:57.849Z,9.23
2022-08-17T01:19:35.905Z,10.52
2022-08-17T01:22:03.777Z,9.85
2022-08-17T01:24:34.131Z,10.05
2022-08-17T01:27:10.501Z,11.02
2022-08-17T01:30:06.234Z,9.85
2022-08-17T01:33:00.135Z,9.82
2022-08-17T01:35:57.003Z,9.85
2022-08-17T01:38:27.222Z,9.52
2022-08-17T01:41:07.953Z,9.98
2022-08-17T01:44:02.337Z,10.20
2022-08-17T01:46:33.567Z,10.65
2022-08-17T01:49:06.886Z,10.93
2022-08-17T01:51:34.434Z,10.90
2022-08-17T01:57:00.518Z,10.98
2022-08-17T01:59:34.224Z,10.15
2022-08-17T02:02:07.672Z,10.27
2022-08-17T02:09:02.302Z,9.35
2022-08-17T02:11:34.247Z,9.85
2022-08-17T02:16:56.208Z,10.30
2022-08-17T02:19:23.990Z,10.35
2022-08-17T02:25:00.651Z,10.23
2022-08-17T02:27:35.278Z,9.70
2022-08-17T02:31:00.992Z,10.35
2022-08-17T02:32:58.140Z,10.52
2022-08-17T02:35:26.159Z,10.32
2022-08-17T02:37:55.809Z,10.75
2022-08-17T02:40:35.053Z,11.20
2022-08-17T02:43:10.036Z,10.15
2022-08-17T02:45:41.994Z,10.30
2022-08-17T02:51:05.864Z,9.95
2022-08-17T02:53:36.031Z,10.25
2022-08-17T02:56:29.534Z,10.73
2022-08-17T02:58:58.688Z,10.77
2022-08-17T03:01:28.055Z,10.65
2022-08-17T03:03:57.111Z,10.40
2022-08-17T03:06:29.205Z,10.00
2022-08-17T03:08:58.037Z,11.05
2022-08-17T03:11:25.860Z,10.88
2022-08-17T03:13:53.862Z,11.02
2022-08-17T03:19:42.993Z,10.02
2022-08-17T03:25:20.141Z,11.20
2022-08-17T03:27:51.488Z,10.50
2022-08-17T03:30:27.460Z,10.63
2022-08-17T03:33:20.257Z,10.13
2022-08-17T03:35:53.985Z,10.55
2022-08-17T03:38:22.052Z,11.57
2022-08-17T03:40:57.892Z,10.80
2022-08-17T03:43:51.874Z,9.88
2022-08-17T03:46:42.401Z,10.65
2022-08-17T03:49:28.509Z,11.13
2022-08-17T03:52:20.555Z,11.40
2022-08-17T03:55:06.407Z,10.93
2022-08-17T03:57:40.037Z,10.65
2022-08-17T04:00:13.723Z,11.52
2022-08-17T04:02:43.009Z,11.40
2022-08-17T04:05:09.978Z,11.02
2022-08-17T04:07:37.894Z,11.20
2022-08-17T04:10:06.440Z,11.75
2022-08-17T04:13:08.907Z,12.00
2022-08-17T04:15:40.844Z,11.27
2022-08-17T04:18:08.121Z,11.95
2022-08-17T04:20:38.015Z,11.88
2022-08-17T04:23:19.931Z,12.93
2022-08-17T04:25:53.640Z,12.75
2022-08-17T04:28:21.931Z,12.68
2022-08-17T04:31:15.059Z,12.27
2022-08-17T04:34:07.902Z,11.98
2022-08-17T04:36:41.211Z,11.98
2022-08-17T04:39:17.977Z,11.77
2022-08-17T04:42:09.172Z,11.63
2022-08-17T04:45:04.569Z,13.50
2022-08-17T04:47:32.024Z,12.55
2022-08-17T04:50:02.405Z,11.77
2022-08-17T04:52:51.057Z,12.05
2022-08-17T04:55:17.975Z,12.88
2022-08-17T04:57:46.079Z,12.75
2022-08-17T05:00:14.303Z,12.63
2022-08-17T05:02:49.606Z,12.75
2022-08-17T05:05:39.196Z,12.38
2022-08-17T05:08:08.024Z,13.65
2022-08-17T05:10:39.130Z,12.00
2022-08-17T05:13:15.963Z,13.02
2022-08-17T05:15:50.380Z,13.13
2022-08-17T05:18:17.883Z,14.13
2022-08-17T05:20:45.831Z,13.05
2022-08-17T05:23:17.012Z,13.68
2022-08-17T05:25:49.780Z,13.98
2022-08-17T05:28:27.436Z,13.55
2022-08-17T05:30:57.892Z,14.60
2022-08-17T05:33:40.418Z,14.60
2022-08-17T05:36:43.723Z,13.43
2022-08-17T05:39:31.986Z,13.82
2022-08-17T05:42:07.073Z,14.63
2022-08-17T05:44:33.834Z,14.18
2022-08-17T05:47:09.954Z,14.48
2022-08-17T05:49:38.674Z,14.15
2022-08-17T05:52:19.904Z,15.10
2022-08-17T05:55:08.098Z,14.65
2022-08-17T05:57:43.587Z,14.20
2022-08-17T06:00:43.037Z,15.43
2022-08-17T06:03:38.065Z,16.08
2022-08-17T06:09:14.426Z,13.30
2022-08-17T06:17:18.425Z,13.25
2022-08-17T06:20:11.358Z,14.13
2022-08-17T06:25:47.891Z,13.00
2022-08-17T06:28:25.782Z,15.13
2022-08-17T06:31:33.045Z,14.13
2022-08-17T06:34:02.747Z,17.33
2022-08-17T06:43:05.812Z,16.58
2022-08-17T06:45:49.349Z,15.82
2022-08-17T06:48:53.905Z,15.50
2022-08-17T06:51:31.121Z,15.52
2022-08-17T06:54:21.722Z,12.90
2022-08-17T06:57:28.434Z,13.10
2022-08-17T07:00:08.395Z,13.63
2022-08-17T07:03:04.265Z,12.55
2022-08-17T07:08:32.916Z,10.77
2022-08-17T07:14:53.124Z,10.57
2022-08-17T07:17:46.554Z,10.38
2022-08-17T07:23:40.083Z,10.77
2022-08-17T07:26:13.397Z,9.68
2022-08-17T07:29:16.583Z,11.45
2022-08-17T07:31:48.815Z,10.45
2022-08-17T07:35:11.440Z,10.55
2022-08-17T07:37:55.534Z,11.10
2022-08-17T07:43:32.986Z,9.80
2022-08-17T07:46:29.528Z,9.07
2022-08-17T07:49:13.470Z,9.38
2022-08-17T07:51:46.655Z,8.75
2022-08-17T07:54:26.397Z,8.02
2022-08-17T07:57:29.884Z,7.50
2022-08-17T08:00:05.372Z,7.65
2022-08-17T08:02:45.472Z,7.97
2022-08-17T08:08:42.361Z,7.15
2022-08-17T08:11:15.299Z,7.13
2022-08-17T08:13:45.640Z,5.88
2022-08-17T08:16:21.943Z,6.50
2022-08-17T08:18:56.824Z,6.10
2022-08-17T08:21:55.171Z,6.47
2022-08-17T08:24:45.895Z,6.55
2022-08-17T08:27:44.529Z,6.78
2022-08-17T08:30:23.474Z,6.00
2022-08-17T08:32:57.209Z,6.47
2022-08-17T08:39:04.283Z,6.78
2022-08-17T08:41:43.559Z,6.55
2022-08-17T08:45:00.177Z,5.78
2022-08-17T08:47:36.141Z,6.53
2022-08-17T08:50:09.436Z,5.97
2022-08-17T08:53:31.904Z,5.28
2022-08-17T08:56:24.753Z,6.40
2022-08-17T08:59:22.275Z,5.65
2022-08-17T09:01:49.813Z,6.00
2022-08-17T09:05:13.043Z,4.85
2022-08-17T09:08:00.724Z,5.88
2022-08-17T09:10:36.892Z,6.25
2022-08-17T09:13:15.953Z,6.10
2022-08-17T09:19:00.224Z,6.10
2022-08-17T09:21:57.604Z,6.00
2022-08-17T09:24:25.892Z,5.78
2022-08-17T09:27:18.416Z,5.40
2022-08-17T09:29:57.826Z,5.90
2022-08-17T09:32:37.938Z,5.65
2022-08-17T09:35:10.435Z,5.32
2022-08-17T09:37:56.168Z,5.00
2022-08-17T09:40:28.709Z,5.50
2022-08-17T09:43:19.626Z,5.53
2022-08-17T09:45:51.924Z,5.70
2022-08-17T09:49:09.719Z,5.10
2022-08-17T09:51:53.935Z,5.00
2022-08-17T09:54:45.595Z,5.07
2022-08-17T09:57:32.580Z,5.28
2022-08-17T10:00:30.523Z,4.72
2022-08-17T10:06:22.088Z,5.22
2022-08-17T10:09:09.866Z,4.93
2022-08-17T10:12:11.735Z,4.90
2022-08-17T10:14:53.337Z,4.70
2022-08-17T10:17:24.908Z,4.82
2022-08-17T10:20:04.200Z,5.07
2022-08-17T10:23:27.013Z,4.30
2022-08-17T10:26:14.423Z,4.50
2022-08-17T10:28:48.431Z,4.47
2022-08-17T10:31:38.574Z,4.25
2022-08-17T10:34:49.605Z,4.70
2022-08-17T10:37:29.819Z,4.60
2022-08-17T10:40:19.413Z,4.35
2022-08-17T10:43:24.805Z,4.10
2022-08-17T10:46:31.072Z,4.22
2022-08-17T10:49:17.906Z,4.07
2022-08-17T10:51:53.357Z,4.30
2022-08-17T10:54:24.522Z,3.80
2022-08-17T10:57:29.049Z,4.05
2022-08-17T10:59:59.781Z,4.15
2022-08-17T11:02:39.000Z,4.18
2022-08-17T11:05:43.813Z,4.72
2022-08-17T11:08:33.016Z,3.90
2022-08-17T11:11:14.841Z,4.15
2022-08-17T11:14:11.168Z,4.18
2022-08-17T11:16:59.461Z,3.95
2022-08-17T11:19:34.342Z,4.55
2022-08-17T11:22:17.831Z,4.43
2022-08-17T11:27:49.580Z,4.43
2022-08-17T11:30:48.737Z,4.15
2022-08-17T11:33:34.213Z,4.20
2022-08-17T11:36:06.861Z,4.43
2022-08-17T11:42:42.520Z,4.40
2022-08-17T11:45:19.517Z,4.78
2022-08-17T11:48:46.492Z,4.15
2022-08-17T11:51:47.106Z,4.25
2022-08-17T11:54:34.347Z,4.63
2022-08-17T11:57:27.901Z,4.70
2022-08-17T12:00:07.881Z,4.30
2022-08-17T12:02:48.608Z,4.15
2022-08-17T12:05:22.882Z,4.13
2022-08-17T12:08:20.883Z,4.75
2022-08-17T12:10:59.709Z,4.65
2022-08-17T12:13:39.385Z,5.28
2022-08-17T12:16:09.933Z,4.85
2022-08-17T12:18:39.752Z,4.68
2022-08-17T12:21:28.653Z,4.60
2022-08-17T12:24:06.640Z,4.15
2022-08-17T12:26:36.690Z,3.92
2022-08-17T12:29:18.059Z,3.95
2022-08-17T12:32:03.841Z,4.13
2022-08-17T12:34:40.570Z,3.53
2022-08-17T12:40:37.882Z,3.85
2022-08-17T12:43:22.461Z,4.05
2022-08-17T12:45:59.425Z,4.53
2022-08-17T12:48:39.345Z,4.72
2022-08-17T12:51:29.017Z,4.70
2022-08-17T12:53:55.908Z,4.13
2022-08-17T12:56:23.996Z,4.25
2022-08-17T12:58:56.754Z,4.53
2022-08-17T13:01:25.142Z,4.88
2022-08-17T13:04:00.160Z,4.70
2022-08-17T13:06:33.574Z,4.70
2022-08-17T13:09:11.210Z,4.38
2022-08-17T13:11:50.571Z,4.53
2022-08-17T13:14:18.720Z,4.50
2022-08-17T13:16:53.770Z,4.28
2022-08-17T13:19:40.385Z,4.32
2022-08-17T13:22:12.728Z,4.18
2022-08-17T13:24:54.743Z,4.38
2022-08-17T13:27:26.038Z,4.13
2022-08-17T13:30:28.594Z,4.28
2022-08-17T13:32:57.401Z,4.35
2022-08-17T13:35:47.100Z,4.10
2022-08-17T13:38:45.585Z,4.28
2022-08-17T13:41:38.929Z,4.47
2022-08-17T13:44:30.968Z,4.78
2022-08-17T13:47:00.159Z,4.57
2022-08-17T13:49:41.713Z,4.03
2022-08-17T13:52:52.147Z,4.47
2022-08-17T13:55:40.884Z,4.10
2022-08-17T13:58:31.503Z,4.32
2022-08-17T14:01:38.654Z,4.70
2022-08-17T14:04:22.189Z,4.47
2022-08-17T14:07:21.468Z,5.13
2022-08-17T14:09:55.595Z,4.65
2022-08-17T14:15:23.406Z,4.53
2022-08-17T14:18:37.527Z,4.75
2022-08-17T14:21:18.695Z,4.65
2022-08-17T14:23:49.969Z,4.35
2022-08-17T14:26:22.083Z,4.70
2022-08-17T14:28:54.683Z,4.40
2022-08-17T14:34:20.975Z,4.53
2022-08-17T14:36:54.872Z,4.22
2022-08-17T14:39:22.053Z,4.75
2022-08-17T14:41:50.085Z,4.65
2022-08-17T14:44:23.629Z,4.70
2022-08-17T14:46:52.057Z,4.32
2022-08-17T14:49:20.799Z,4.28
2022-08-17T14:51:48.166Z,4.63
2022-08-17T14:54:33.189Z,5.05
2022-08-17T15:00:02.905Z,4.57
2022-08-17T15:02:30.874Z,5.03
2022-08-17T15:05:08.220Z,5.70
2022-08-17T15:07:35.896Z,5.78
2022-08-17T15:10:04.404Z,5.05
2022-08-17T15:12:33.636Z,5.72
2022-08-17T15:15:09.398Z,5.70
2022-08-17T15:17:44.207Z,5.47
2022-08-17T15:20:27.693Z,5.63
2022-08-17T15:22:57.401Z,6.00
2022-08-17T15:25:32.558Z,6.30
2022-08-17T15:28:00.788Z,6.75
2022-08-17T15:30:34.595Z,7.07
2022-08-17T15:33:30.198Z,5.70
2022-08-17T15:36:01.778Z,6.75
2022-08-17T15:38:30.640Z,6.13
2022-08-17T15:40:58.376Z,6.32
2022-08-17T15:43:33.757Z,6.57
2022-08-17T15:46:15.489Z,6.63
2022-08-17T15:48:46.187Z,6.50
2022-08-17T15:51:39.175Z,6.35
2022-08-17T15:54:22.240Z,6.10
2022-08-17T15:56:50.346Z,5.63
2022-08-17T15:59:18.344Z,6.05
2022-08-17T16:03:45.049Z,5.75
2022-08-17T16:05:40.792Z,5.57
2022-08-17T16:08:07.939Z,5.80
2022-08-17T16:10:40.268Z,5.53
2022-08-17T16:13:17.932Z,5.78
2022-08-17T16:15:56.239Z,5.60
2022-08-17T16:18:31.027Z,6.25
2022-08-17T16:27:11.712Z,5.53
2022-08-17T16:30:07.615Z,6.10
2022-08-17T16:32:36.308Z,5.70
2022-08-17T16:35:06.012Z,5.70
2022-08-17T16:37:34.315Z,6.25
2022-08-17T16:40:02.149Z,5.72
2022-08-17T16:42:33.164Z,6.13
2022-08-17T16:45:28.540Z,5.65
2022-08-17T16:48:02.000Z,5.40
2022-08-17T16:50:30.016Z,5.78
2022-08-17T16:53:07.056Z,5.50
2022-08-17T16:55:35.615Z,5.25
2022-08-17T16:58:05.229Z,5.80
2022-08-17T17:00:33.435Z,5.53
2022-08-17T17:03:19.625Z,5.25
2022-08-17T17:06:35.939Z,5.57
2022-08-17T17:09:12.086Z,5.40
2022-08-17T17:11:39.740Z,6.07
2022-08-17T17:14:15.697Z,5.22
2022-08-17T17:16:57.089Z,5.43
2022-08-17T17:19:46.611Z,6.65
2022-08-17T17:22:21.808Z,5.15
2022-08-17T17:25:04.888Z,5.38
2022-08-17T17:27:42.450Z,5.20
2022-08-17T17:34:16.643Z,5.38
2022-08-17T17:36:58.686Z,5.38
2022-08-17T17:39:31.879Z,5.73
2022-08-17T17:42:20.088Z,5.47
2022-08-17T17:45:03.088Z,5.38
2022-08-17T17:51:00.582Z,5.32
2022-08-17T17:54:09.868Z,5.25
2022-08-17T17:57:17.599Z,5.40
2022-08-17T18:00:14.761Z,5.30
2022-08-17T18:06:24.686Z,5.70
2022-08-17T18:09:08.850Z,4.80
2022-08-17T18:11:41.385Z,5.38
2022-08-17T18:14:41.272Z,5.85
2022-08-17T18:17:09.857Z,6.28
2022-08-17T18:19:39.928Z,5.70
2022-08-17T18:22:28.105Z,6.00
2022-08-17T18:24:58.494Z,6.00
2022-08-17T18:27:52.024Z,5.50
2022-08-17T18:30:20.080Z,6.35
2022-08-17T18:35:58.761Z,5.93
2022-08-17T18:38:43.191Z,5.38
2022-08-17T18:41:19.154Z,4.72
2022-08-17T18:44:02.122Z,4.32
2022-08-17T18:47:12.242Z,3.40
2022-08-17T18:49:46.161Z,3.75
2022-08-17T18:52:16.670Z,5.50
2022-08-17T18:55:15.629Z,4.25
2022-08-17T18:57:52.971Z,3.53
2022-08-17T19:00:43.572Z,3.88
2022-08-17T19:03:42.462Z,3.90
2022-08-17T19:06:28.424Z,3.80
2022-08-17T19:09:01.990Z,3.53
2022-08-17T19:11:37.897Z,3.40
2022-08-17T19:14:10.464Z,3.20
2022-08-17T19:16:56.597Z,3.80
2022-08-17T19:19:32.320Z,3.70
2022-08-17T19:22:15.910Z,3.45
2022-08-17T19:25:09.352Z,3.63
2022-08-17T19:27:49.197Z,3.92
2022-08-17T19:30:17.945Z,3.97
2022-08-17T19:32:45.877Z,4.38
2022-08-17T19:35:17.545Z,4.05
2022-08-17T19:38:12.935Z,4.00
2022-08-17T19:41:14.201Z,4.40
2022-08-17T19:43:57.340Z,4.13
2022-08-17T19:46:50.559Z,4.32
2022-08-17T19:49:33.483Z,4.03
2022-08-17T19:52:37.571Z,4.35
2022-08-17T19:55:31.197Z,4.63
2022-08-17T19:58:03.484Z,5.00
2022-08-17T20:01:00.962Z,5.25
